sensor_id;sensor_type;location;lat;lon;timestamp;pressure;altitude;pressure_sealevel;temperature;humidity
50710;BME280;37033;49.994;21.992;2022-10-15T00:01:28;99398.11;;;10.08;79.46
50710;BME280;37033;49.994;21.992;2022-10-15T00:04:20;99396.52;;;10.08;79.66
50710;BME280;37033;49.994;21.992;2022-10-15T00:07:08;99396.71;;;10.09;79.76
50710;BME280;37033;49.994;21.992;2022-10-15T00:09:57;99393.73;;;10.09;79.64
50710;BME280;37033;49.994;21.992;2022-10-15T00:12:45;99394.23;;;10.10;79.57
50710;BME280;37033;49.994;21.992;2022-10-15T00:15:36;99394.16;;;10.12;79.86
50710;BME280;37033;49.994;21.992;2022-10-15T00:18:24;99395.11;;;10.13;80.02
50710;BME280;37033;49.994;21.992;2022-10-15T00:21:13;99392.70;;;10.14;80.16
50710;BME280;37033;49.994;21.992;2022-10-15T00:24:02;99392.88;;;10.15;80.01
50710;BME280;37033;49.994;21.992;2022-10-15T00:26:51;99390.62;;;10.16;80.09
50710;BME280;37033;49.994;21.992;2022-10-15T00:29:39;99387.59;;;10.17;80.09
50710;BME280;37033;49.994;21.992;2022-10-15T00:32:28;99385.56;;;10.18;80.05
50710;BME280;37033;49.994;21.992;2022-10-15T00:35:16;99383.99;;;10.18;80.01
50710;BME280;37033;49.994;21.992;2022-10-15T00:38:05;99382.90;;;10.19;79.94
50710;BME280;37033;49.994;21.992;2022-10-15T00:40:54;99377.67;;;10.18;79.77
50710;BME280;37033;49.994;21.992;2022-10-15T00:43:44;99384.17;;;10.16;79.75
50710;BME280;37033;49.994;21.992;2022-10-15T00:46:33;99380.84;;;10.16;79.69
50710;BME280;37033;49.994;21.992;2022-10-15T00:49:23;99381.31;;;10.15;79.68
50710;BME280;37033;49.994;21.992;2022-10-15T00:52:13;99378.36;;;10.14;79.73
50710;BME280;37033;49.994;21.992;2022-10-15T00:55:04;99380.77;;;10.13;79.72
50710;BME280;37033;49.994;21.992;2022-10-15T00:57:54;99378.55;;;10.12;79.72
50710;BME280;37033;49.994;21.992;2022-10-15T01:00:44;99374.91;;;10.11;79.74
50710;BME280;37033;49.994;21.992;2022-10-15T01:03:33;99374.98;;;10.09;79.77
50710;BME280;37033;49.994;21.992;2022-10-15T01:06:22;99369.26;;;10.07;79.80
50710;BME280;37033;49.994;21.992;2022-10-15T01:09:11;99370.24;;;10.06;79.94
50710;BME280;37033;49.994;21.992;2022-10-15T01:11:59;99371.20;;;10.04;79.80
50710;BME280;37033;49.994;21.992;2022-10-15T01:14:50;99367.09;;;10.03;79.87
50710;BME280;37033;49.994;21.992;2022-10-15T01:17:43;99366.06;;;10.02;80.06
50710;BME280;37033;49.994;21.992;2022-10-15T01:20:50;99367.44;;;10.01;80.04
50710;BME280;37033;49.994;21.992;2022-10-15T01:27:23;99368.25;;;9.99;80.19
50710;BME280;37033;49.994;21.992;2022-10-15T01:30:25;99365.67;;;9.98;80.26
50710;BME280;37033;49.994;21.992;2022-10-15T01:33:17;99362.60;;;9.97;80.14
50710;BME280;37033;49.994;21.992;2022-10-15T01:36:11;99361.21;;;9.95;79.91
50710;BME280;37033;49.994;21.992;2022-10-15T01:39:05;99358.13;;;9.93;80.10
50710;BME280;37033;49.994;21.992;2022-10-15T01:41:59;99360.75;;;9.91;80.33
50710;BME280;37033;49.994;21.992;2022-10-15T01:44:49;99359.81;;;9.90;80.36
50710;BME280;37033;49.994;21.992;2022-10-15T01:47:40;99359.23;;;9.89;80.23
50710;BME280;37033;49.994;21.992;2022-10-15T01:50:31;99358.45;;;9.88;80.32
50710;BME280;37033;49.994;21.992;2022-10-15T01:53:22;99356.70;;;9.88;80.24
50710;BME280;37033;49.994;21.992;2022-10-15T01:56:13;99356.52;;;9.87;80.51
50710;BME280;37033;49.994;21.992;2022-10-15T01:59:02;99360.00;;;9.86;80.40
50710;BME280;37033;49.994;21.992;2022-10-15T02:01:52;99361.43;;;9.85;80.50
50710;BME280;37033;49.994;21.992;2022-10-15T02:04:41;99364.41;;;9.85;80.70
50710;BME280;37033;49.994;21.992;2022-10-15T02:07:31;99358.38;;;9.84;80.56
50710;BME280;37033;49.994;21.992;2022-10-15T02:10:24;99358.84;;;9.83;80.63
50710;BME280;37033;49.994;21.992;2022-10-15T02:13:19;99356.71;;;9.83;80.67
50710;BME280;37033;49.994;21.992;2022-10-15T02:16:16;99357.98;;;9.83;80.68
50710;BME280;37033;49.994;21.992;2022-10-15T02:19:11;99353.56;;;9.83;80.79
50710;BME280;37033;49.994;21.992;2022-10-15T02:22:04;99358.77;;;9.83;80.73
50710;BME280;37033;49.994;21.992;2022-10-15T02:24:55;99354.73;;;9.82;80.77
50710;BME280;37033;49.994;21.992;2022-10-15T02:27:48;99355.20;;;9.80;80.76
50710;BME280;37033;49.994;21.992;2022-10-15T02:30:39;99358.73;;;9.78;80.80
50710;BME280;37033;49.994;21.992;2022-10-15T02:33:29;99354.63;;;9.77;80.77
50710;BME280;37033;49.994;21.992;2022-10-15T02:36:19;99348.47;;;9.73;80.57
50710;BME280;37033;49.994;21.992;2022-10-15T02:39:10;99342.42;;;9.70;80.61
50710;BME280;37033;49.994;21.992;2022-10-15T02:42:00;99338.70;;;9.66;80.99
50710;BME280;37033;49.994;21.992;2022-10-15T02:44:48;99336.85;;;9.64;81.04
50710;BME280;37033;49.994;21.992;2022-10-15T02:47:39;99333.48;;;9.63;81.22
50710;BME280;37033;49.994;21.992;2022-10-15T02:50:27;99332.65;;;9.63;81.28
50710;BME280;37033;49.994;21.992;2022-10-15T02:53:16;99335.27;;;9.64;81.40
50710;BME280;37033;49.994;21.992;2022-10-15T02:56:05;99329.45;;;9.63;81.37
50710;BME280;37033;49.994;21.992;2022-10-15T02:58:53;99328.39;;;9.64;81.36
50710;BME280;37033;49.994;21.992;2022-10-15T03:01:42;99332.54;;;9.63;81.41
50710;BME280;37033;49.994;21.992;2022-10-15T03:04:30;99334.71;;;9.63;81.36
50710;BME280;37033;49.994;21.992;2022-10-15T03:07:19;99336.27;;;9.62;81.46
50710;BME280;37033;49.994;21.992;2022-10-15T03:10:08;99335.52;;;9.60;81.35
50710;BME280;37033;49.994;21.992;2022-10-15T03:13:00;99334.21;;;9.58;81.29
50710;BME280;37033;49.994;21.992;2022-10-15T03:15:48;99336.05;;;9.55;81.26
50710;BME280;37033;49.994;21.992;2022-10-15T03:18:37;99336.98;;;9.53;81.35
50710;BME280;37033;49.994;21.992;2022-10-15T03:21:26;99335.81;;;9.50;81.28
50710;BME280;37033;49.994;21.992;2022-10-15T03:24:16;99335.25;;;9.46;81.33
50710;BME280;37033;49.994;21.992;2022-10-15T03:27:05;99333.39;;;9.43;81.40
50710;BME280;37033;49.994;21.992;2022-10-15T03:29:54;99333.52;;;9.40;81.38
50710;BME280;37033;49.994;21.992;2022-10-15T03:32:42;99333.59;;;9.36;81.22
50710;BME280;37033;49.994;21.992;2022-10-15T03:35:31;99333.59;;;9.31;81.29
50710;BME280;37033;49.994;21.992;2022-10-15T03:38:19;99335.75;;;9.26;81.15
50710;BME280;37033;49.994;21.992;2022-10-15T03:41:08;99330.31;;;9.21;81.35
50710;BME280;37033;49.994;21.992;2022-10-15T03:44:00;99326.10;;;9.15;81.49
50710;BME280;37033;49.994;21.992;2022-10-15T03:46:49;99326.27;;;9.10;81.48
50710;BME280;37033;49.994;21.992;2022-10-15T03:49:37;99325.80;;;9.07;81.43
50710;BME280;37033;49.994;21.992;2022-10-15T03:52:26;99328.73;;;9.05;81.67
50710;BME280;37033;49.994;21.992;2022-10-15T03:55:15;99331.23;;;9.04;81.77
50710;BME280;37033;49.994;21.992;2022-10-15T03:58:04;99333.77;;;9.03;81.80
50710;BME280;37033;49.994;21.992;2022-10-15T04:00:53;99336.60;;;9.02;81.93
50710;BME280;37033;49.994;21.992;2022-10-15T04:03:41;99339.23;;;9.00;82.01
50710;BME280;37033;49.994;21.992;2022-10-15T04:06:30;99340.16;;;8.99;81.96
50710;BME280;37033;49.994;21.992;2022-10-15T04:09:20;99344.64;;;8.98;81.95
50710;BME280;37033;49.994;21.992;2022-10-15T04:12:08;99345.84;;;8.96;81.89
50710;BME280;37033;49.994;21.992;2022-10-15T04:14:57;99340.91;;;8.94;81.85
50710;BME280;37033;49.994;21.992;2022-10-15T04:17:46;99340.45;;;8.91;81.98
50710;BME280;37033;49.994;21.992;2022-10-15T04:20:34;99337.89;;;8.88;82.01
50710;BME280;37033;49.994;21.992;2022-10-15T04:23:22;99339.40;;;8.85;82.02
50710;BME280;37033;49.994;21.992;2022-10-15T04:26:11;99339.89;;;8.83;81.99
50710;BME280;37033;49.994;21.992;2022-10-15T04:28:59;99342.46;;;8.81;82.03
50710;BME280;37033;49.994;21.992;2022-10-15T04:31:48;99340.98;;;8.77;81.86
50710;BME280;37033;49.994;21.992;2022-10-15T04:34:36;99338.80;;;8.73;81.81
50710;BME280;37033;49.994;21.992;2022-10-15T04:37:25;99333.03;;;8.68;81.76
50710;BME280;37033;49.994;21.992;2022-10-15T04:40:14;99333.67;;;8.63;81.89
50710;BME280;37033;49.994;21.992;2022-10-15T04:43:03;99329.66;;;8.61;81.86
50710;BME280;37033;49.994;21.992;2022-10-15T04:45:51;99325.00;;;8.57;81.96
50710;BME280;37033;49.994;21.992;2022-10-15T04:55:46;99321.77;;;8.50;82.29
50710;BME280;37033;49.994;21.992;2022-10-15T04:58:35;99321.92;;;8.47;82.47
50710;BME280;37033;49.994;21.992;2022-10-15T05:01:23;99328.54;;;8.46;82.38
50710;BME280;37033;49.994;21.992;2022-10-15T05:04:13;99330.10;;;8.44;82.46
50710;BME280;37033;49.994;21.992;2022-10-15T05:07:01;99336.83;;;8.41;82.54
50710;BME280;37033;49.994;21.992;2022-10-15T05:09:50;99331.45;;;8.37;82.34
50710;BME280;37033;49.994;21.992;2022-10-15T05:12:38;99327.87;;;8.34;82.43
50710;BME280;37033;49.994;21.992;2022-10-15T05:15:27;99332.19;;;8.32;82.54
50710;BME280;37033;49.994;21.992;2022-10-15T05:18:15;99334.14;;;8.30;82.55
50710;BME280;37033;49.994;21.992;2022-10-15T05:21:04;99327.20;;;8.28;82.60
50710;BME280;37033;49.994;21.992;2022-10-15T05:23:53;99331.73;;;8.25;82.47
50710;BME280;37033;49.994;21.992;2022-10-15T05:26:42;99334.01;;;8.23;82.51
50710;BME280;37033;49.994;21.992;2022-10-15T05:29:32;99331.40;;;8.21;82.61
50710;BME280;37033;49.994;21.992;2022-10-15T05:32:20;99334.42;;;8.23;82.84
50710;BME280;37033;49.994;21.992;2022-10-15T05:35:09;99332.73;;;8.24;83.00
50710;BME280;37033;49.994;21.992;2022-10-15T05:37:57;99327.48;;;8.27;83.00
50710;BME280;37033;49.994;21.992;2022-10-15T05:40:48;99328.77;;;8.32;83.19
50710;BME280;37033;49.994;21.992;2022-10-15T05:43:36;99330.36;;;8.38;83.45
50710;BME280;37033;49.994;21.992;2022-10-15T05:46:25;99332.25;;;8.45;83.63
50710;BME280;37033;49.994;21.992;2022-10-15T05:49:13;99333.23;;;8.53;83.83
50710;BME280;37033;49.994;21.992;2022-10-15T05:52:02;99331.77;;;8.61;84.12
50710;BME280;37033;49.994;21.992;2022-10-15T05:54:50;99333.56;;;8.71;84.02
50710;BME280;37033;49.994;21.992;2022-10-15T05:57:39;99335.59;;;8.81;84.16
50710;BME280;37033;49.994;21.992;2022-10-15T06:00:27;99341.13;;;8.89;84.30
50710;BME280;37033;49.994;21.992;2022-10-15T06:03:15;99338.60;;;8.97;84.18
50710;BME280;37033;49.994;21.992;2022-10-15T06:06:04;99347.09;;;9.06;84.29
50710;BME280;37033;49.994;21.992;2022-10-15T06:09:00;99348.58;;;9.16;84.49
50710;BME280;37033;49.994;21.992;2022-10-15T06:11:48;99354.24;;;9.26;84.54
50710;BME280;37033;49.994;21.992;2022-10-15T06:14:37;99348.34;;;9.35;84.63
50710;BME280;37033;49.994;21.992;2022-10-15T06:17:25;99351.93;;;9.45;84.34
50710;BME280;37033;49.994;21.992;2022-10-15T06:20:14;99351.77;;;9.54;84.57
50710;BME280;37033;49.994;21.992;2022-10-15T06:23:03;99353.52;;;9.64;84.62
50710;BME280;37033;49.994;21.992;2022-10-15T06:25:52;99355.77;;;9.74;84.64
50710;BME280;37033;49.994;21.992;2022-10-15T06:28:41;99355.83;;;9.84;84.42
50710;BME280;37033;49.994;21.992;2022-10-15T06:31:30;99352.61;;;9.97;84.10
50710;BME280;37033;49.994;21.992;2022-10-15T06:34:18;99354.70;;;10.13;84.08
50710;BME280;37033;49.994;21.992;2022-10-15T06:37:06;99355.79;;;10.28;84.13
50710;BME280;37033;49.994;21.992;2022-10-15T06:39:55;99358.80;;;10.42;83.92
50710;BME280;37033;49.994;21.992;2022-10-15T06:42:43;99359.95;;;10.56;83.36
50710;BME280;37033;49.994;21.992;2022-10-15T06:45:32;99360.65;;;10.70;83.27
50710;BME280;37033;49.994;21.992;2022-10-15T06:48:22;99357.91;;;10.83;82.78
50710;BME280;37033;49.994;21.992;2022-10-15T06:51:10;99351.55;;;10.96;82.47
50710;BME280;37033;49.994;21.992;2022-10-15T06:53:59;99359.39;;;11.08;82.46
50710;BME280;37033;49.994;21.992;2022-10-15T06:56:48;99359.00;;;11.20;82.39
50710;BME280;37033;49.994;21.992;2022-10-15T06:59:36;99363.34;;;11.29;82.50
50710;BME280;37033;49.994;21.992;2022-10-15T07:02:25;99362.02;;;11.39;82.40
50710;BME280;37033;49.994;21.992;2022-10-15T07:05:14;99359.86;;;11.47;82.37
50710;BME280;37033;49.994;21.992;2022-10-15T07:08:03;99363.64;;;11.55;82.49
50710;BME280;37033;49.994;21.992;2022-10-15T07:10:52;99369.24;;;11.61;82.43
50710;BME280;37033;49.994;21.992;2022-10-15T07:13:40;99373.14;;;11.67;82.55
50710;BME280;37033;49.994;21.992;2022-10-15T07:16:31;99374.54;;;11.74;82.42
50710;BME280;37033;49.994;21.992;2022-10-15T07:19:20;99378.45;;;11.81;82.20
50710;BME280;37033;49.994;21.992;2022-10-15T07:22:08;99377.05;;;11.88;82.01
50710;BME280;37033;49.994;21.992;2022-10-15T07:24:57;99379.29;;;11.95;81.87
50710;BME280;37033;49.994;21.992;2022-10-15T07:27:45;99380.16;;;12.02;81.94
50710;BME280;37033;49.994;21.992;2022-10-15T07:30:33;99384.08;;;12.10;81.66
50710;BME280;37033;49.994;21.992;2022-10-15T07:33:22;99384.28;;;12.16;81.70
50710;BME280;37033;49.994;21.992;2022-10-15T07:36:10;99382.02;;;12.23;81.51
50710;BME280;37033;49.994;21.992;2022-10-15T07:39:00;99381.50;;;12.30;81.51
50710;BME280;37033;49.994;21.992;2022-10-15T07:41:49;99382.46;;;12.36;81.37
50710;BME280;37033;49.994;21.992;2022-10-15T07:44:38;99384.62;;;12.43;81.26
50710;BME280;37033;49.994;21.992;2022-10-15T07:47:27;99382.67;;;12.50;81.03
50710;BME280;37033;49.994;21.992;2022-10-15T07:50:15;99382.92;;;12.56;80.91
50710;BME280;37033;49.994;21.992;2022-10-15T07:53:04;99382.73;;;12.62;80.78
50710;BME280;37033;49.994;21.992;2022-10-15T07:55:55;99383.11;;;12.69;80.59
50710;BME280;37033;49.994;21.992;2022-10-15T07:58:45;99387.01;;;12.75;80.55
50710;BME280;37033;49.994;21.992;2022-10-15T08:01:38;99386.52;;;12.81;80.44
50710;BME280;37033;49.994;21.992;2022-10-15T08:04:26;99386.00;;;12.88;80.44
50710;BME280;37033;49.994;21.992;2022-10-15T08:07:15;99385.48;;;12.95;80.27
50710;BME280;37033;49.994;21.992;2022-10-15T08:10:03;99383.27;;;13.03;80.18
50710;BME280;37033;49.994;21.992;2022-10-15T08:12:52;99384.80;;;13.10;79.89
50710;BME280;37033;49.994;21.992;2022-10-15T08:15:41;99381.66;;;13.17;79.74
50710;BME280;37033;49.994;21.992;2022-10-15T08:18:30;99375.82;;;13.24;79.51
50710;BME280;37033;49.994;21.992;2022-10-15T08:21:18;99379.67;;;13.31;79.08
50710;BME280;37033;49.994;21.992;2022-10-15T08:24:07;99379.95;;;13.37;78.89
50710;BME280;37033;49.994;21.992;2022-10-15T08:26:55;99373.75;;;13.41;78.69
50710;BME280;37033;49.994;21.992;2022-10-15T08:29:43;99375.65;;;13.46;78.47
50710;BME280;37033;49.994;21.992;2022-10-15T08:32:32;99375.73;;;13.50;78.55
50710;BME280;37033;49.994;21.992;2022-10-15T08:35:20;99375.71;;;13.53;78.50
50710;BME280;37033;49.994;21.992;2022-10-15T08:38:09;99379.06;;;13.56;78.07
50710;BME280;37033;49.994;21.992;2022-10-15T08:40:58;99374.39;;;13.60;78.21
50710;BME280;37033;49.994;21.992;2022-10-15T08:43:48;99372.27;;;13.68;78.46
50710;BME280;37033;49.994;21.992;2022-10-15T08:46:38;99373.56;;;13.82;78.55
50710;BME280;37033;49.994;21.992;2022-10-15T08:49:34;99372.09;;;13.99;78.07
50710;BME280;37033;49.994;21.992;2022-10-15T08:52:32;99373.84;;;14.18;77.71
50710;BME280;37033;49.994;21.992;2022-10-15T08:55:28;99375.41;;;14.38;77.18
50710;BME280;37033;49.994;21.992;2022-10-15T08:58:18;99371.70;;;14.55;76.84
50710;BME280;37033;49.994;21.992;2022-10-15T09:01:08;99369.21;;;14.72;75.42
50710;BME280;37033;49.994;21.992;2022-10-15T09:04:04;99370.89;;;14.88;74.04
50710;BME280;37033;49.994;21.992;2022-10-15T09:06:58;99369.61;;;15.00;73.87
50710;BME280;37033;49.994;21.992;2022-10-15T09:09:50;99363.38;;;15.14;73.23
50710;BME280;37033;49.994;21.992;2022-10-15T09:12:42;99362.14;;;15.26;71.98
50710;BME280;37033;49.994;21.992;2022-10-15T09:15:35;99357.98;;;15.36;71.63
50710;BME280;37033;49.994;21.992;2022-10-15T09:18:28;99359.89;;;15.44;71.28
50710;BME280;37033;49.994;21.992;2022-10-15T09:21:18;99358.02;;;15.51;70.83
50710;BME280;37033;49.994;21.992;2022-10-15T09:24:09;99354.58;;;15.58;69.75
50710;BME280;37033;49.994;21.992;2022-10-15T09:27:01;99356.65;;;15.65;69.22
50710;BME280;37033;49.994;21.992;2022-10-15T09:29:54;99356.36;;;15.72;69.32
50710;BME280;37033;49.994;21.992;2022-10-15T09:32:47;99357.05;;;15.78;68.96
50710;BME280;37033;49.994;21.992;2022-10-15T09:35:40;99360.15;;;15.86;69.15
50710;BME280;37033;49.994;21.992;2022-10-15T09:38:33;99361.44;;;15.93;69.05
50710;BME280;37033;49.994;21.992;2022-10-15T09:41:28;99365.29;;;15.99;67.33
50710;BME280;37033;49.994;21.992;2022-10-15T09:44:19;99367.08;;;16.05;67.29
50710;BME280;37033;49.994;21.992;2022-10-15T09:47:19;99366.19;;;16.11;66.95
50710;BME280;37033;49.994;21.992;2022-10-15T09:50:11;99370.17;;;16.17;66.95
50710;BME280;37033;49.994;21.992;2022-10-15T09:53:02;99370.53;;;16.25;65.77
50710;BME280;37033;49.994;21.992;2022-10-15T09:55:53;99369.37;;;16.30;65.48
50710;BME280;37033;49.994;21.992;2022-10-15T09:58:46;99373.89;;;16.34;66.10
50710;BME280;37033;49.994;21.992;2022-10-15T10:01:37;99369.38;;;16.42;65.58
50710;BME280;37033;49.994;21.992;2022-10-15T10:04:26;99367.98;;;16.47;65.09
50710;BME280;37033;49.994;21.992;2022-10-15T10:07:27;99365.15;;;16.51;64.66
50710;BME280;37033;49.994;21.992;2022-10-15T10:10:23;99363.16;;;16.56;63.83
50710;BME280;37033;49.994;21.992;2022-10-15T10:13:19;99368.44;;;16.66;63.69
50710;BME280;37033;49.994;21.992;2022-10-15T10:16:09;99365.25;;;16.76;64.14
50710;BME280;37033;49.994;21.992;2022-10-15T10:19:02;99361.91;;;16.89;64.22
50710;BME280;37033;49.994;21.992;2022-10-15T10:21:52;99362.42;;;16.97;63.85
50710;BME280;37033;49.994;21.992;2022-10-15T10:24:53;99355.23;;;17.04;62.98
50710;BME280;37033;49.994;21.992;2022-10-15T10:27:43;99359.56;;;17.05;62.77
50710;BME280;37033;49.994;21.992;2022-10-15T10:30:33;99359.21;;;17.10;63.05
50710;BME280;37033;49.994;21.992;2022-10-15T10:33:26;99358.71;;;17.17;63.24
50710;BME280;37033;49.994;21.992;2022-10-15T10:36:21;99361.23;;;17.25;62.99
50710;BME280;37033;49.994;21.992;2022-10-15T10:39:14;99359.30;;;17.28;62.11
50710;BME280;37033;49.994;21.992;2022-10-15T10:42:08;99353.45;;;17.37;62.42
50710;BME280;37033;49.994;21.992;2022-10-15T10:45:16;99354.38;;;17.50;62.46
50710;BME280;37033;49.994;21.992;2022-10-15T10:48:19;99352.73;;;17.62;61.63
50710;BME280;37033;49.994;21.992;2022-10-15T10:51:11;99348.23;;;17.73;61.68
50710;BME280;37033;49.994;21.992;2022-10-15T10:54:00;99349.25;;;17.82;60.31
50710;BME280;37033;49.994;21.992;2022-10-15T10:56:50;99341.49;;;17.83;59.55
50710;BME280;37033;49.994;21.992;2022-10-15T10:59:43;99342.88;;;17.85;59.34
50710;BME280;37033;49.994;21.992;2022-10-15T11:02:38;99342.25;;;17.92;59.20
50710;BME280;37033;49.994;21.992;2022-10-15T11:05:30;99335.85;;;17.93;58.09
50710;BME280;37033;49.994;21.992;2022-10-15T11:08:23;99328.08;;;17.95;59.06
50710;BME280;37033;49.994;21.992;2022-10-15T11:11:18;99325.40;;;18.00;58.43
50710;BME280;37033;49.994;21.992;2022-10-15T11:14:10;99329.21;;;18.02;57.71
50710;BME280;37033;49.994;21.992;2022-10-15T11:17:06;99330.46;;;17.99;55.87
50710;BME280;37033;49.994;21.992;2022-10-15T11:20:04;99329.91;;;18.00;56.21
50710;BME280;37033;49.994;21.992;2022-10-15T11:23:02;99329.71;;;18.02;55.95
50710;BME280;37033;49.994;21.992;2022-10-15T11:25:57;99327.81;;;18.04;56.07
50710;BME280;37033;49.994;21.992;2022-10-15T11:28:53;99329.67;;;18.06;56.66
50710;BME280;37033;49.994;21.992;2022-10-15T11:31:46;99328.79;;;18.06;56.24
50710;BME280;37033;49.994;21.992;2022-10-15T11:34:43;99331.40;;;18.04;55.35
50710;BME280;37033;49.994;21.992;2022-10-15T11:37:40;99325.71;;;18.01;55.78
50710;BME280;37033;49.994;21.992;2022-10-15T11:40:35;99325.54;;;18.02;55.53
50710;BME280;37033;49.994;21.992;2022-10-15T11:43:34;99327.17;;;18.03;56.15
50710;BME280;37033;49.994;21.992;2022-10-15T11:46:29;99325.70;;;18.08;55.14
50710;BME280;37033;49.994;21.992;2022-10-15T11:49:25;99325.98;;;18.05;54.58
50710;BME280;37033;49.994;21.992;2022-10-15T11:52:29;99321.80;;;18.01;54.22
50710;BME280;37033;49.994;21.992;2022-10-15T11:55:24;99322.16;;;17.99;54.59
50710;BME280;37033;49.994;21.992;2022-10-15T11:58:18;99324.35;;;17.99;55.06
50710;BME280;37033;49.994;21.992;2022-10-15T12:01:09;99328.01;;;18.02;55.67
50710;BME280;37033;49.994;21.992;2022-10-15T12:03:59;99325.27;;;18.06;54.68
50710;BME280;37033;49.994;21.992;2022-10-15T12:06:50;99328.33;;;18.08;54.66
50710;BME280;37033;49.994;21.992;2022-10-15T12:09:43;99328.08;;;18.10;55.07
50710;BME280;37033;49.994;21.992;2022-10-15T12:12:39;99334.73;;;18.14;53.99
50710;BME280;37033;49.994;21.992;2022-10-15T12:15:33;99334.04;;;18.13;53.15
50710;BME280;37033;49.994;21.992;2022-10-15T12:18:24;99334.48;;;18.10;53.88
50710;BME280;37033;49.994;21.992;2022-10-15T12:27:33;99333.14;;;18.19;53.67
50710;BME280;37033;49.994;21.992;2022-10-15T12:30:26;99343.61;;;18.19;53.95
50710;BME280;37033;49.994;21.992;2022-10-15T12:33:24;99339.70;;;18.19;53.64
50710;BME280;37033;49.994;21.992;2022-10-15T12:36:23;99334.24;;;18.20;53.93
50710;BME280;37033;49.994;21.992;2022-10-15T12:39:20;99337.73;;;18.21;54.14
50710;BME280;37033;49.994;21.992;2022-10-15T12:42:17;99338.39;;;18.23;54.41
50710;BME280;37033;49.994;21.992;2022-10-15T12:45:19;99338.14;;;18.21;54.66
50710;BME280;37033;49.994;21.992;2022-10-15T12:48:22;99335.71;;;18.15;54.72
50710;BME280;37033;49.994;21.992;2022-10-15T12:54:35;99333.73;;;17.96;55.26
50710;BME280;37033;49.994;21.992;2022-10-15T13:00:31;99329.02;;;17.94;56.04
50710;BME280;37033;49.994;21.992;2022-10-15T13:06:24;99330.08;;;18.12;55.88
50710;BME280;37033;49.994;21.992;2022-10-15T13:09:27;99322.04;;;18.18;55.49
50710;BME280;37033;49.994;21.992;2022-10-15T13:12:21;99323.58;;;18.23;55.77
50710;BME280;37033;49.994;21.992;2022-10-15T13:15:11;99316.89;;;18.33;55.68
50710;BME280;37033;49.994;21.992;2022-10-15T13:18:05;99322.80;;;18.32;54.57
50710;BME280;37033;49.994;21.992;2022-10-15T13:20:55;99319.66;;;18.25;54.67
50710;BME280;37033;49.994;21.992;2022-10-15T13:23:45;99319.25;;;18.21;54.52
50710;BME280;37033;49.994;21.992;2022-10-15T13:26:34;99316.85;;;18.14;54.96
50710;BME280;37033;49.994;21.992;2022-10-15T13:29:23;99319.03;;;18.08;55.31
50710;BME280;37033;49.994;21.992;2022-10-15T13:32:15;99322.20;;;18.00;55.41
50710;BME280;37033;49.994;21.992;2022-10-15T13:35:08;99321.27;;;17.93;55.95
50710;BME280;37033;49.994;21.992;2022-10-15T13:38:01;99321.66;;;17.88;55.43
50710;BME280;37033;49.994;21.992;2022-10-15T13:40:52;99325.02;;;17.81;55.32
50710;BME280;37033;49.994;21.992;2022-10-15T13:43:49;99328.39;;;17.78;55.98
50710;BME280;37033;49.994;21.992;2022-10-15T13:46:38;99324.63;;;17.83;56.12
50710;BME280;37033;49.994;21.992;2022-10-15T13:49:27;99326.25;;;17.87;55.78
50710;BME280;37033;49.994;21.992;2022-10-15T13:52:15;99322.27;;;17.89;55.74
50710;BME280;37033;49.994;21.992;2022-10-15T13:55:08;99325.15;;;17.91;55.22
50710;BME280;37033;49.994;21.992;2022-10-15T13:57:58;99323.88;;;17.86;55.08
50710;BME280;37033;49.994;21.992;2022-10-15T14:00:52;99326.63;;;17.73;54.92
50710;BME280;37033;49.994;21.992;2022-10-15T14:03:46;99325.17;;;17.59;55.00
50710;BME280;37033;49.994;21.992;2022-10-15T14:06:35;99325.48;;;17.42;55.19
50710;BME280;37033;49.994;21.992;2022-10-15T14:09:26;99326.96;;;17.31;55.90
50710;BME280;37033;49.994;21.992;2022-10-15T14:12:16;99326.39;;;17.20;55.64
50710;BME280;37033;49.994;21.992;2022-10-15T14:18:07;99332.64;;;16.98;56.17
50710;BME280;37033;49.994;21.992;2022-10-15T14:20:56;99329.30;;;16.90;56.22
50710;BME280;37033;49.994;21.992;2022-10-15T14:23:44;99329.17;;;16.81;56.45
50710;BME280;37033;49.994;21.992;2022-10-15T14:26:33;99328.08;;;16.76;56.84
50710;BME280;37033;49.994;21.992;2022-10-15T14:29:24;99328.70;;;16.75;57.26
50710;BME280;37033;49.994;21.992;2022-10-15T14:32:24;99331.00;;;16.75;57.44
50710;BME280;37033;49.994;21.992;2022-10-15T14:35:22;99332.34;;;16.72;57.68
50710;BME280;37033;49.994;21.992;2022-10-15T14:38:15;99326.80;;;16.70;57.71
50710;BME280;37033;49.994;21.992;2022-10-15T14:41:05;99328.41;;;16.67;57.91
50710;BME280;37033;49.994;21.992;2022-10-15T14:44:03;99324.08;;;16.67;58.06
50710;BME280;37033;49.994;21.992;2022-10-15T14:46:52;99325.45;;;16.66;58.26
50710;BME280;37033;49.994;21.992;2022-10-15T14:49:46;99322.33;;;16.64;58.46
50710;BME280;37033;49.994;21.992;2022-10-15T14:52:34;99324.79;;;16.59;58.52
50710;BME280;37033;49.994;21.992;2022-10-15T14:55:28;99326.01;;;16.53;58.76
50710;BME280;37033;49.994;21.992;2022-10-15T14:58:19;99328.55;;;16.49;58.95
50710;BME280;37033;49.994;21.992;2022-10-15T15:01:12;99331.27;;;16.45;59.17
50710;BME280;37033;49.994;21.992;2022-10-15T15:04:03;99334.55;;;16.39;59.06
50710;BME280;37033;49.994;21.992;2022-10-15T15:06:52;99335.38;;;16.33;59.31
50710;BME280;37033;49.994;21.992;2022-10-15T15:09:40;99334.27;;;16.27;59.14
50710;BME280;37033;49.994;21.992;2022-10-15T15:12:29;99333.45;;;16.22;59.38
50710;BME280;37033;49.994;21.992;2022-10-15T15:15:21;99337.09;;;16.15;59.43
50710;BME280;37033;49.994;21.992;2022-10-15T15:18:10;99339.20;;;16.09;59.55
50710;BME280;37033;49.994;21.992;2022-10-15T15:20:59;99338.23;;;16.04;59.86
50710;BME280;37033;49.994;21.992;2022-10-15T15:23:48;99341.44;;;15.99;60.00
50710;BME280;37033;49.994;21.992;2022-10-15T15:26:37;99342.92;;;15.91;60.24